Time;durP1;ratioP1;P1;durP2;ratioP2;P2;SDS_P1;SDS_P2;PMS_P1;PMS_P2;Temp;Humidity;BMP_temperature;BMP_pressure;BME280_temperature;BME280_humidity;BME280_pressure;Samples;Min_cycle;Max_cycle;Signal;HPM_P1;HPM_P2
2023/04/27 00:01:35;;;;;;;3.63;2.30;;;3.40;99.90;3.20;100797.00;;;;4934691;28;116998;-70
2023/04/27 00:04:03;;;;;;;5.07;2.27;;;3.40;99.90;3.20;100803.00;;;;4933208;28;87831;-70
2023/04/27 00:06:29;;;;;;;1.80;1.37;;;3.50;99.90;3.20;100797.00;;;;4937046;28;86974;-70
2023/04/27 00:08:55;;;;;;;3.67;1.87;;;3.50;99.90;3.20;100794.00;;;;4936049;28;105365;-71
2023/04/27 00:11:21;;;;;;;2.80;1.70;;;3.40;99.90;3.20;100797.00;;;;4936160;28;87872;-70
2023/04/27 00:13:47;;;;;;;3.57;2.57;;;3.40;99.90;3.10;100797.00;;;;4933292;28;88991;-70
2023/04/27 00:16:12;;;;;;;2.20;1.37;;;3.40;99.90;3.10;100796.00;;;;4934786;28;89490;-70
2023/04/27 00:18:38;;;;;;;4.50;1.70;;;3.30;99.90;3.10;100797.00;;;;4933304;28;108967;-71
2023/04/27 00:21:04;;;;;;;2.97;2.47;;;4.10;99.90;3.10;100797.00;;;;4930778;28;98007;-70
2023/04/27 00:23:30;;;;;;;3.17;2.53;;;3.30;99.90;3.10;100794.00;;;;4927201;28;110421;-70
2023/04/27 00:25:55;;;;;;;1.63;1.33;;;3.30;99.90;3.00;100793.00;;;;4936631;28;87848;-70
2023/04/27 00:28:21;;;;;;;3.30;2.20;;;3.30;99.90;3.00;100794.00;;;;4936343;28;116778;-70
2023/04/27 00:30:47;;;;;;;4.50;2.03;;;3.20;99.90;2.90;100796.00;;;;4933642;28;117783;-70
2023/04/27 00:33:13;;;;;;;2.70;1.50;;;3.20;99.90;2.80;100795.00;;;;4932173;28;87885;-70
2023/04/27 00:35:39;;;;;;;7.57;2.57;;;3.10;99.90;2.80;100799.00;;;;4930897;28;95936;-70
2023/04/27 00:38:04;;;;;;;5.40;2.73;;;3.00;99.90;2.70;100795.00;;;;4930872;28;99302;-70
2023/04/27 00:40:30;;;;;;;3.60;1.97;;;3.00;99.90;2.70;100800.00;;;;4934984;28;117473;-70
2023/04/27 00:42:56;;;;;;;2.77;2.03;;;3.00;99.90;2.70;100786.00;;;;4935389;28;87755;-70
2023/04/27 00:45:22;;;;;;;3.10;2.17;;;2.90;99.90;2.70;100789.00;;;;4934067;28;109136;-70
2023/04/27 00:47:48;;;;;;;2.43;2.13;;;2.90;99.90;2.60;100793.00;;;;4932960;28;88597;-70
2023/04/27 00:50:14;;;;;;;5.23;2.13;;;2.90;99.90;2.60;100785.00;;;;4936317;28;98911;-70
2023/04/27 00:52:40;;;;;;;3.57;2.47;;;2.80;99.90;2.60;100800.00;;;;4931575;28;110760;-70
2023/04/27 00:55:07;;;;;;;3.03;2.83;;;2.80;99.90;2.50;100795.00;;;;4933056;28;101967;-70
2023/04/27 00:57:33;;;;;;;2.43;1.93;;;2.80;99.90;2.50;100787.00;;;;4934856;28;88160;-70
2023/04/27 01:00:00;;;;;;;7.23;2.67;;;2.70;99.90;2.40;100799.00;;;;4929097;28;113157;-70
2023/04/27 01:02:26;;;;;;;3.07;2.30;;;2.80;99.90;2.40;100806.00;;;;4929598;28;88742;-70
2023/04/27 01:04:52;;;;;;;3.07;2.30;;;2.70;99.90;2.30;100803.00;;;;4937305;28;88086;-71
2023/04/27 01:07:18;;;;;;;4.60;2.87;;;2.70;99.90;2.30;100802.00;;;;4918682;28;89409;-70
2023/04/27 01:09:45;;;;;;;3.10;2.13;;;2.60;99.90;2.30;100799.00;;;;4931397;28;116987;-70
2023/04/27 01:12:11;;;;;;;1.77;1.50;;;2.60;99.90;2.30;100803.00;;;;4933116;28;87800;-70
2023/04/27 01:14:36;;;;;;;2.37;2.17;;;2.60;99.90;2.20;100796.00;;;;4931928;28;99272;-70
2023/04/27 01:17:02;;;;;;;2.83;2.07;;;2.50;99.90;2.20;100806.00;;;;4932788;28;88004;-70
2023/04/27 01:19:28;;;;;;;1.80;1.70;;;2.50;99.90;2.10;100812.00;;;;4929250;28;116379;-70
2023/04/27 01:21:53;;;;;;;4.63;2.33;;;2.40;99.90;2.10;100803.00;;;;4934262;28;109338;-71
2023/04/27 01:24:19;;;;;;;2.60;2.00;;;2.40;99.90;2.00;100813.00;;;;4928788;28;113592;-69
2023/04/27 01:26:45;;;;;;;2.87;1.40;;;2.30;99.90;2.00;100814.00;;;;4935970;28;118152;-69
2023/04/27 01:29:10;;;;;;;4.77;1.80;;;2.40;99.90;2.00;100815.00;;;;4928102;28;104938;-70
2023/04/27 01:31:36;;;;;;;2.10;1.70;;;2.30;99.90;2.00;100811.00;;;;4930259;28;109260;-70
2023/04/27 01:34:02;;;;;;;4.07;1.77;;;2.30;99.90;2.00;100815.00;;;;4934587;28;87751;-69
2023/04/27 01:36:28;;;;;;;5.70;2.40;;;2.30;99.90;2.00;100822.00;;;;4932796;28;88121;-70
2023/04/27 01:38:53;;;;;;;2.77;2.10;;;2.30;99.90;2.00;100811.00;;;;4935453;28;118028;-69
2023/04/27 01:41:19;;;;;;;5.73;2.87;;;2.60;99.90;2.00;100815.00;;;;4936420;28;110418;-70
2023/04/27 01:43:46;;;;;;;2.60;2.10;;;2.30;99.90;2.00;100811.00;;;;4928347;28;108977;-70
2023/04/27 01:46:13;;;;;;;2.60;2.10;;;2.30;99.90;2.00;100815.00;;;;4935883;28;88002;-70
2023/04/27 01:48:40;;;;;;;3.27;1.87;;;3.00;99.90;2.00;100818.00;;;;4932876;28;88150;-70
2023/04/27 01:51:06;;;;;;;4.10;2.17;;;2.30;99.90;2.00;100825.00;;;;4929474;28;91087;-70
2023/04/27 01:53:32;;;;;;;3.67;2.37;;;2.30;99.90;2.00;100825.00;;;;4934750;28;88014;-70
2023/04/27 01:55:58;;;;;;;1.60;1.43;;;2.30;99.90;2.00;100828.00;;;;4932029;28;87996;-70
2023/04/27 01:58:25;;;;;;;3.53;1.93;;;2.30;99.90;2.00;100834.00;;;;4933479;28;88357;-70
2023/04/27 02:00:50;;;;;;;3.53;2.23;;;2.50;99.90;2.00;100825.00;;;;4935291;28;87942;-70
2023/04/27 02:03:16;;;;;;;3.00;2.13;;;2.30;99.90;2.00;100830.00;;;;4932099;28;89505;-70
2023/04/27 02:05:42;;;;;;;8.43;2.30;;;2.30;99.90;1.90;100833.00;;;;4930632;28;118458;-70
2023/04/27 02:08:08;;;;;;;3.27;2.33;;;2.20;99.90;1.90;100828.00;;;;4933769;28;88614;-70
2023/04/27 02:10:34;;;;;;;4.93;2.27;;;1.70;99.90;1.90;100822.00;;;;4926941;28;88007;-70
2023/04/27 02:13:00;;;;;;;3.77;2.50;;;2.20;99.90;1.80;100828.00;;;;4934010;28;87740;-70
2023/04/27 02:15:26;;;;;;;3.90;2.10;;;2.20;99.90;1.80;100833.00;;;;4931554;28;108737;-70
2023/04/27 02:17:52;;;;;;;3.53;2.60;;;2.10;99.90;1.80;100850.00;;;;4932153;28;119194;-70
2023/04/27 02:20:17;;;;;;;5.50;2.23;;;2.10;99.90;1.80;100837.00;;;;4931188;28;110349;-70
2023/04/27 02:22:43;;;;;;;2.70;2.07;;;2.20;99.90;1.80;100859.00;;;;4933117;28;108987;-70
2023/04/27 02:25:12;;;;;;;4.50;2.20;;;2.10;99.90;1.80;100844.00;;;;4931657;28;117313;-70
2023/04/27 02:27:42;;;;;;;2.77;2.20;;;2.10;99.90;1.90;100850.00;;;;4932006;28;87796;-70
2023/04/27 02:30:10;;;;;;;1.80;1.47;;;2.10;99.90;1.90;100839.00;;;;4932088;28;87895;-70
2023/04/27 02:32:36;;;;;;;2.37;2.13;;;2.20;99.90;1.90;100848.00;;;;4933667;28;87333;-70
2023/04/27 02:35:02;;;;;;;2.33;1.67;;;2.20;99.90;1.90;100843.00;;;;4933811;28;108697;-71
2023/04/27 02:37:28;;;;;;;4.07;2.37;;;2.20;99.90;1.90;100858.00;;;;4933884;28;107203;-71
2023/04/27 02:39:54;;;;;;;1.87;1.37;;;2.20;99.90;1.90;100848.00;;;;4932187;28;97246;-70
2023/04/27 02:42:20;;;;;;;2.03;1.83;;;2.20;99.90;1.80;100850.00;;;;4935651;28;87491;-70
2023/04/27 02:44:46;;;;;;;4.23;2.07;;;2.20;99.90;1.80;100849.00;;;;4935431;28;88449;-70
2023/04/27 02:47:12;;;;;;;2.67;2.47;;;2.10;99.90;1.80;100843.00;;;;4930454;28;94513;-70
2023/04/27 02:49:38;;;;;;;2.27;2.07;;;2.10;99.90;1.80;100849.00;;;;4931077;28;109016;-70
2023/04/27 02:52:04;;;;;;;2.43;1.93;;;2.10;99.90;1.80;100836.00;;;;4934509;28;87915;-70
2023/04/27 02:54:30;;;;;;;3.13;2.60;;;2.10;99.90;1.80;100846.00;;;;4932539;28;104548;-70
2023/04/27 02:56:56;;;;;;;8.87;2.40;;;2.10;99.90;1.70;100848.00;;;;4936382;28;88555;-71
2023/04/27 02:59:22;;;;;;;4.03;2.23;;;2.10;99.90;1.70;100835.00;;;;4937411;28;110130;-71
2023/04/27 03:01:47;;;;;;;2.97;1.93;;;2.40;99.90;1.70;100847.00;;;;4942399;28;109247;-71
2023/04/27 03:04:13;;;;;;;3.77;2.00;;;2.00;99.90;1.60;100851.00;;;;4930877;28;90028;-71
2023/04/27 03:06:42;;;;;;;4.67;2.53;;;1.90;99.90;1.60;100843.00;;;;4933994;28;88835;-71
2023/04/27 03:09:11;;;;;;;3.27;2.53;;;1.90;99.90;1.60;100848.00;;;;4934527;28;87989;-71
2023/04/27 03:11:38;;;;;;;5.80;2.63;;;2.00;99.90;1.70;100855.00;;;;4936677;28;88051;-71
2023/04/27 03:14:05;;;;;;;4.60;1.87;;;2.00;99.90;1.80;100849.00;;;;4937155;28;106481;-71
2023/04/27 03:16:32;;;;;;;4.57;2.83;;;2.00;99.90;1.80;100849.00;;;;4938188;28;88800;-71
2023/04/27 03:18:57;;;;;;;3.03;2.20;;;2.10;99.90;1.80;100848.00;;;;4935935;28;96783;-71
2023/04/27 03:21:23;;;;;;;3.00;2.27;;;2.10;99.90;1.80;100850.00;;;;4937885;28;87315;-71
2023/04/27 03:23:49;;;;;;;2.53;2.33;;;2.00;99.90;1.80;100853.00;;;;4935210;28;115744;-72
2023/04/27 03:26:15;;;;;;;6.93;3.27;;;2.80;99.90;1.80;100865.00;;;;4932376;28;117255;-71
2023/04/27 03:28:41;;;;;;;5.20;2.10;;;2.10;99.90;1.80;100865.00;;;;4932470;28;88606;-71
2023/04/27 03:31:12;;;;;;;5.27;2.73;;;2.10;99.90;2.00;100869.00;;;;4937340;28;87965;-71
2023/04/27 03:33:39;;;;;;;5.00;2.23;;;2.20;99.90;2.10;100881.00;;;;4934445;28;90033;-71
2023/04/27 03:36:06;;;;;;;4.77;2.33;;;2.30;99.90;2.10;100873.00;;;;4933319;28;88523;-71
2023/04/27 03:38:33;;;;;;;4.23;2.83;;;2.30;99.90;2.10;100872.00;;;;4934237;28;87865;-71
2023/04/27 03:40:58;;;;;;;4.43;2.73;;;2.40;99.90;2.10;100877.00;;;;4938641;28;99244;-71
2023/04/27 03:43:25;;;;;;;3.60;2.17;;;2.40;99.90;2.10;100891.00;;;;4932830;28;118863;-71
2023/04/27 03:45:52;;;;;;;3.00;2.27;;;2.30;99.90;2.00;100887.00;;;;4930531;28;118555;-71
2023/04/27 03:48:18;;;;;;;2.93;2.00;;;2.30;99.90;2.00;100887.00;;;;4935517;28;87898;-71
2023/04/27 03:50:44;;;;;;;3.83;2.03;;;2.30;99.90;2.10;100894.00;;;;4933671;28;109649;-71
2023/04/27 03:53:10;;;;;;;1.77;1.67;;;2.30;99.90;2.10;100892.00;;;;4933935;28;106196;-71
2023/04/27 03:55:40;;;;;;;2.37;2.17;;;2.20;99.90;2.10;100896.00;;;;4933974;28;89088;-70
2023/04/27 03:58:06;;;;;;;3.57;1.90;;;2.40;99.90;2.10;100891.00;;;;4934153;28;101762;-72
2023/04/27 04:00:33;;;;;;;6.03;2.50;;;2.40;99.90;2.10;100891.00;;;;4939219;28;87867;-71
2023/04/27 04:02:58;;;;;;;5.93;2.40;;;2.30;99.90;2.10;100895.00;;;;4930826;28;110376;-71
2023/04/27 04:05:24;;;;;;;7.90;2.07;;;2.40;99.90;2.20;100893.00;;;;4931082;28;117668;-71
2023/04/27 04:07:50;;;;;;;4.37;2.20;;;2.40;99.90;2.20;100894.00;;;;4936477;28;93216;-71
2023/04/27 04:10:15;;;;;;;3.17;1.97;;;2.50;99.90;2.20;100909.00;;;;4935693;28;107145;-71
2023/04/27 04:12:41;;;;;;;3.27;2.47;;;2.40;99.90;2.20;100905.00;;;;4936331;28;90769;-71
2023/04/27 04:15:07;;;;;;;3.03;2.10;;;2.50;99.90;2.30;100901.00;;;;4917078;28;88492;-71
2023/04/27 04:17:33;;;;;;;2.80;1.93;;;2.60;99.90;2.30;100917.00;;;;4931663;28;89045;-71
2023/04/27 04:20:00;;;;;;;9.57;2.43;;;3.20;99.90;2.40;100906.00;;;;4934652;28;87909;-72
2023/04/27 04:22:26;;;;;;;3.03;2.10;;;2.70;99.90;2.40;100906.00;;;;4935274;28;87901;-72
2023/04/27 04:24:52;;;;;;;4.30;2.07;;;2.70;99.90;2.50;100911.00;;;;4930905;28;117195;-72
2023/04/27 04:27:18;;;;;;;3.67;1.70;;;2.70;99.90;2.60;100913.00;;;;4928558;28;110588;-72
2023/04/27 04:29:44;;;;;;;2.13;1.73;;;2.80;99.90;2.70;100921.00;;;;4930922;28;108392;-72
2023/04/27 04:32:11;;;;;;;2.60;2.27;;;2.90;99.90;2.80;100929.00;;;;4930480;28;89418;-70
2023/04/27 04:34:37;;;;;;;7.83;2.67;;;3.00;99.90;3.00;100924.00;;;;4934435;28;87085;-70
2023/04/27 04:37:03;;;;;;;2.83;2.10;;;3.10;99.90;3.10;100921.00;;;;4931938;28;88192;-70
2023/04/27 04:39:32;;;;;;;2.40;2.20;;;3.30;99.90;3.20;100931.00;;;;4930782;28;87773;-70
2023/04/27 04:42:16;;;;;;;2.70;2.27;;;3.40;99.90;3.40;100927.00;;;;4934510;28;91500;-70
2023/04/27 04:44:41;;;;;;;3.73;2.30;;;3.60;99.90;3.40;100938.00;;;;4931715;28;117611;-70
2023/04/27 04:47:08;;;;;;;4.03;1.97;;;3.70;99.90;3.50;100923.00;;;;4930324;28;110456;-71
2023/04/27 04:49:35;;;;;;;2.00;1.47;;;3.70;99.90;3.60;100944.00;;;;4928253;28;87884;-71
2023/04/27 04:52:00;;;;;;;1.90;1.63;;;3.70;99.90;3.70;100940.00;;;;4929277;28;87727;-70
2023/04/27 04:54:26;;;;;;;4.47;2.47;;;3.80;99.90;3.70;100943.00;;;;4927296;28;88937;-71
2023/04/27 04:56:52;;;;;;;2.30;2.10;;;3.60;99.90;3.80;100943.00;;;;4930159;28;93773;-70
2023/04/27 04:59:17;;;;;;;2.33;2.13;;;4.00;99.90;3.80;100951.00;;;;4929279;28;108864;-70
2023/04/27 05:01:43;;;;;;;2.13;1.87;;;4.00;99.90;3.90;100950.00;;;;4929804;28;117655;-70
2023/04/27 05:04:09;;;;;;;3.03;2.17;;;4.30;99.90;4.00;100964.00;;;;4931608;28;88110;-71
2023/04/27 05:06:35;;;;;;;2.83;2.20;;;4.30;99.90;4.10;100956.00;;;;4931115;28;89192;-70
2023/04/27 05:09:00;;;;;;;2.77;1.73;;;4.30;99.90;4.20;100962.00;;;;4934757;28;87851;-70
2023/04/27 05:11:26;;;;;;;2.83;2.10;;;4.40;99.90;4.30;100955.00;;;;4935162;28;116569;-70
2023/04/27 05:13:52;;;;;;;3.10;2.20;;;4.50;99.90;4.40;100965.00;;;;4934311;28;98297;-70
2023/04/27 05:16:18;;;;;;;1.90;1.77;;;4.60;99.90;4.60;100963.00;;;;4934382;28;87667;-70
2023/04/27 05:18:43;;;;;;;2.00;1.57;;;4.80;99.90;4.60;100962.00;;;;4931555;28;87811;-70
2023/04/27 05:21:19;;;;;;;4.17;2.40;;;4.80;99.90;4.70;100963.00;;;;4926623;28;116997;-70
2023/04/27 05:23:45;;;;;;;3.83;2.33;;;5.20;99.90;4.80;100965.00;;;;4939285;28;87077;-70
2023/04/27 05:26:16;;;;;;;3.17;2.07;;;5.00;99.90;4.90;100972.00;;;;4933571;28;87918;-70
2023/04/27 05:28:42;;;;;;;2.47;1.43;;;5.00;99.90;4.90;100966.00;;;;4934524;28;87849;-71
2023/04/27 05:31:07;;;;;;;2.33;1.47;;;5.10;99.90;5.10;100968.00;;;;4933696;28;106502;-71
2023/04/27 05:33:33;;;;;;;2.20;2.00;;;5.20;99.90;5.20;100973.00;;;;4932167;28;119669;-70
2023/04/27 05:35:59;;;;;;;2.80;2.03;;;5.30;99.90;5.20;100960.00;;;;4935168;28;103418;-70
2023/04/27 05:38:25;;;;;;;2.33;1.93;;;5.70;99.90;5.30;100972.00;;;;4931790;28;109255;-72
2023/04/27 05:40:57;;;;;;;1.67;1.57;;;5.70;99.90;5.30;100964.00;;;;4935051;28;116805;-72
2023/04/27 05:43:24;;;;;;;2.03;1.83;;;6.00;99.90;5.40;100958.00;;;;4936050;28;88766;-71
2023/04/27 05:45:50;;;;;;;3.27;2.53;;;5.50;99.90;5.40;100970.00;;;;4936776;28;87642;-72
2023/04/27 05:48:16;;;;;;;3.43;1.63;;;5.60;99.90;5.40;100963.00;;;;4933493;28;87103;-71
2023/04/27 05:50:42;;;;;;;3.53;2.07;;;5.60;99.90;5.50;100966.00;;;;4933690;28;110183;-71
2023/04/27 05:53:08;;;;;;;4.17;2.10;;;5.60;99.90;5.50;100963.00;;;;4931790;28;90057;-71
2023/04/27 05:55:33;;;;;;;2.57;1.87;;;5.70;99.90;5.60;100966.00;;;;4927396;28;110558;-72
2023/04/27 05:58:00;;;;;;;4.87;2.37;;;5.70;99.90;5.60;100957.00;;;;4926788;28;108540;-72
2023/04/27 06:00:27;;;;;;;3.00;2.77;;;5.80;99.90;5.60;100968.00;;;;4928599;28;87876;-72
2023/04/27 06:02:53;;;;;;;2.87;1.87;;;5.70;99.90;5.70;100965.00;;;;4929484;28;88135;-71
2023/04/27 06:05:19;;;;;;;5.33;2.00;;;6.40;99.90;5.80;100962.00;;;;4935882;28;87832;-70
2023/04/27 06:07:45;;;;;;;8.67;2.37;;;5.90;99.90;5.90;100966.00;;;;4934544;28;88042;-70
2023/04/27 06:10:10;;;;;;;3.90;2.03;;;5.90;99.90;5.90;100966.00;;;;4935308;28;113829;-70
2023/04/27 06:12:37;;;;;;;5.17;2.63;;;6.00;99.90;6.00;100962.00;;;;4935297;28;116658;-70
2023/04/27 06:15:07;;;;;;;1.80;1.63;;;6.10;99.90;6.10;100966.00;;;;4933715;28;87929;-70
2023/04/27 06:17:35;;;;;;;4.27;2.50;;;6.20;99.90;6.20;100976.00;;;;4929899;28;87835;-70
2023/04/27 06:20:00;;;;;;;2.40;1.70;;;6.30;99.90;6.40;100964.00;;;;4934448;28;89842;-70
2023/04/27 06:22:26;;;;;;;2.53;2.00;;;6.40;99.90;6.50;100963.00;;;;4929952;28;118600;-70
2023/04/27 06:24:51;;;;;;;2.40;1.93;;;6.50;99.90;6.70;100971.00;;;;4933282;28;110556;-72
2023/04/27 06:27:17;;;;;;;3.70;2.80;;;7.20;99.90;6.70;100967.00;;;;4931457;28;108367;-72
2023/04/27 06:29:43;;;;;;;4.40;2.30;;;7.20;99.90;6.80;100965.00;;;;4932586;28;115425;-71
2023/04/27 06:32:08;;;;;;;5.83;2.73;;;7.20;99.90;6.90;100974.00;;;;4934672;28;118191;-72
2023/04/27 06:34:34;;;;;;;2.63;2.10;;;7.40;99.90;7.00;100976.00;;;;4936727;28;108421;-71
2023/04/27 06:37:00;;;;;;;3.27;2.10;;;7.30;99.90;7.20;100976.00;;;;4934364;28;88572;-71
2023/04/27 06:39:25;;;;;;;1.40;1.17;;;7.20;99.90;7.40;100977.00;;;;4930590;28;118846;-71
2023/04/27 06:41:51;;;;;;;3.40;1.90;;;7.40;99.90;7.50;100977.00;;;;4935080;28;116649;-72
2023/04/27 06:44:17;;;;;;;2.03;1.60;;;8.10;99.90;7.70;100981.00;;;;4936348;28;93139;-71
2023/04/27 06:46:43;;;;;;;2.50;1.43;;;7.70;99.90;7.90;100979.00;;;;4934622;28;95238;-71
2023/04/27 06:49:08;;;;;;;3.20;1.60;;;7.90;99.90;8.10;100984.00;;;;4933476;28;89181;-71
2023/04/27 06:51:37;;;;;;;5.07;2.23;;;8.00;99.90;8.20;100986.00;;;;4936455;28;117876;-71
2023/04/27 06:54:03;;;;;;;1.93;1.73;;;8.20;99.90;8.30;100986.00;;;;4934861;28;87766;-71
2023/04/27 06:56:28;;;;;;;2.57;1.90;;;8.30;99.90;8.50;100988.00;;;;4934767;28;96799;-71
2023/04/27 06:58:55;;;;;;;2.27;1.80;;;8.50;99.90;8.60;100994.00;;;;4919385;28;118508;-71
2023/04/27 07:01:20;;;;;;;2.33;1.93;;;8.60;99.90;8.80;100985.00;;;;4937148;28;88372;-71
2023/04/27 07:03:46;;;;;;;1.60;1.20;;;8.70;99.70;9.00;100996.00;;;;4936408;28;109818;-71
2023/04/27 07:06:12;;;;;;;2.13;1.83;;;8.90;99.50;9.10;100996.00;;;;4940806;28;108787;-71
2023/04/27 07:08:37;;;;;;;1.97;1.23;;;9.10;99.10;9.30;100996.00;;;;4927357;28;91067;-71
2023/04/27 07:11:03;;;;;;;2.87;1.97;;;9.30;98.80;9.50;101000.00;;;;4935697;28;106640;-71
2023/04/27 07:13:29;;;;;;;3.17;2.53;;;9.40;98.50;9.70;101001.00;;;;4931550;28;108351;-71
2023/04/27 07:15:59;;;;;;;4.33;2.17;;;9.60;98.20;9.90;100996.00;;;;4914353;28;108485;-70
2023/04/27 07:18:27;;;;;;;8.20;1.77;;;9.80;97.80;10.00;100993.00;;;;4933184;28;88784;-71
2023/04/27 07:20:53;;;;;;;2.60;1.87;;;9.90;97.10;10.10;100993.00;;;;4935988;28;87929;-70
2023/04/27 07:23:19;;;;;;;3.80;2.33;;;10.10;96.70;10.20;100999.00;;;;4939510;28;88062;-73
2023/04/27 07:25:45;;;;;;;5.37;2.00;;;10.20;96.00;10.30;100989.00;;;;4939368;28;87306;-73
2023/04/27 07:28:11;;;;;;;3.80;2.07;;;10.30;95.80;10.40;100998.00;;;;4937232;28;88147;-70
2023/04/27 07:30:38;;;;;;;3.50;1.93;;;10.40;95.70;10.60;101000.00;;;;4931779;28;88832;-71
2023/04/27 07:33:04;;;;;;;2.57;2.07;;;10.50;94.90;10.80;101006.00;;;;4933091;28;89110;-71
2023/04/27 07:35:30;;;;;;;1.60;1.40;;;10.70;94.60;11.00;100998.00;;;;4936453;28;87944;-71
2023/04/27 07:37:56;;;;;;;1.53;1.00;;;10.90;94.40;11.30;100995.00;;;;4936208;28;87736;-72
2023/04/27 07:40:23;;;;;;;4.87;1.77;;;11.20;93.90;11.50;100999.00;;;;4933090;28;87977;-69
2023/04/27 07:42:48;;;;;;;9.33;2.17;;;11.40;92.80;11.60;101006.00;;;;4929795;28;87911;-70
2023/04/27 07:45:16;;;;;;;2.50;1.63;;;11.50;92.30;11.80;101013.00;;;;4933447;28;94075;-70
2023/04/27 07:47:42;;;;;;;1.80;1.20;;;11.70;91.90;12.00;101010.00;;;;4934637;28;88295;-70
2023/04/27 07:50:09;;;;;;;2.20;1.77;;;11.90;91.70;12.30;101016.00;;;;4933712;28;88170;-73
2023/04/27 07:52:36;;;;;;;2.07;1.37;;;12.20;91.60;12.60;101013.00;;;;4935169;28;87847;-70
2023/04/27 07:55:02;;;;;;;2.63;1.27;;;12.50;91.00;12.90;101014.00;;;;4934407;28;88006;-72
2023/04/27 07:57:28;;;;;;;3.27;1.70;;;12.70;90.60;13.10;101020.00;;;;4932095;28;89575;-71
2023/04/27 07:59:54;;;;;;;1.23;1.00;;;13.00;89.40;13.50;101020.00;;;;4937578;28;117920;-71
2023/04/27 08:02:20;;;;;;;2.57;2.00;;;13.30;88.70;13.90;101019.00;;;;4938836;28;87729;-72
2023/04/27 08:04:46;;;;;;;2.17;1.40;;;13.60;87.40;14.20;101026.00;;;;4935327;28;87768;-71
2023/04/27 08:07:12;;;;;;;2.80;1.30;;;14.00;85.50;14.40;101027.00;;;;4933750;28;87834;-70
2023/04/27 08:09:37;;;;;;;5.90;1.13;;;14.20;83.40;14.60;101032.00;;;;4931501;28;117465;-70
2023/04/27 08:12:03;;;;;;;3.70;1.23;;;14.40;81.50;14.70;101037.00;;;;4934410;28;109488;-71
2023/04/27 08:14:29;;;;;;;1.30;1.20;;;14.60;80.00;14.80;101027.00;;;;4934346;28;87140;-70
2023/04/27 08:16:55;;;;;;;2.33;1.30;;;14.70;78.50;14.90;101033.00;;;;4937760;28;88986;-70
2023/04/27 08:19:20;;;;;;;2.33;1.65;;;14.80;77.00;15.00;101041.00;;;;4937488;28;118149;-72
2023/04/27 08:21:46;;;;;;;1.33;1.02;;;14.90;76.50;15.20;101039.00;;;;4936828;28;88794;-70
2023/04/27 08:24:11;;;;;;;3.22;1.08;;;15.00;74.00;15.20;101027.00;;;;4933635;28;108904;-71
2023/04/27 08:26:40;;;;;;;1.02;0.93;;;15.10;72.00;15.20;101037.00;;;;4919570;28;117238;-71
2023/04/27 08:29:06;;;;;;;3.30;1.20;;;15.10;71.50;15.20;101030.00;;;;4934084;28;88083;-70
2023/04/27 08:31:32;;;;;;;1.15;1.05;;;15.20;68.20;15.10;101030.00;;;;4931674;28;87831;-70
2023/04/27 08:33:58;;;;;;;1.00;0.85;;;15.10;66.70;15.00;101026.00;;;;4934835;28;87897;-70
2023/04/27 08:36:24;;;;;;;1.73;1.10;;;15.00;66.20;14.80;101031.00;;;;4931517;28;88264;-72
2023/04/27 08:38:53;;;;;;;1.30;1.05;;;14.90;64.10;14.70;101029.00;;;;4933645;28;88774;-69
2023/04/27 08:41:23;;;;;;;2.00;1.35;;;14.70;63.80;14.40;101026.00;;;;4934538;28;109088;-70
2023/04/27 08:43:52;;;;;;;3.58;1.27;;;14.50;61.60;14.20;101023.00;;;;4929564;28;108186;-70
2023/04/27 08:46:23;;;;;;;2.92;1.13;;;14.30;62.60;14.30;101027.00;;;;4937236;28;89131;-70
2023/04/27 08:48:50;;;;;;;4.63;1.73;;;14.30;63.20;14.40;101034.00;;;;4932084;28;89834;-72
2023/04/27 08:51:16;;;;;;;2.50;0.90;;;14.30;63.40;14.50;101025.00;;;;4934391;28;88110;-72
2023/04/27 08:53:49;;;;;;;1.92;1.20;;;14.40;63.30;14.90;101024.00;;;;4937331;28;108880;-71
2023/04/27 08:56:16;;;;;;;1.63;1.27;;;14.70;63.90;15.20;101029.00;;;;4933973;28;87876;-70
2023/04/27 08:58:56;;;;;;;2.05;1.20;;;15.00;63.60;15.30;101025.00;;;;4930517;28;88652;-70
2023/04/27 09:01:24;;;;;;;1.67;1.35;;;15.20;62.50;15.30;101026.00;;;;4933250;28;87852;-71
2023/04/27 09:03:56;;;;;;;1.75;1.58;;;15.30;61.20;15.20;101035.00;;;;4936935;28;87254;-71
2023/04/27 09:06:33;;;;;;;1.50;1.33;;;15.20;60.20;15.00;101033.00;;;;4931765;28;88604;-71
2023/04/27 09:09:00;;;;;;;1.77;1.42;;;15.10;60.30;14.90;101022.00;;;;4931493;28;88347;-71
2023/04/27 09:11:38;;;;;;;1.50;1.10;;;14.90;60.00;14.70;101032.00;;;;4934344;28;88932;-70
2023/04/27 09:14:22;;;;;;;1.55;1.15;;;14.80;60.60;14.50;101024.00;;;;4931571;28;87982;-70
2023/04/27 09:16:56;;;;;;;2.72;1.58;;;14.60;60.30;14.30;101029.00;;;;4932551;28;88944;-71
2023/04/27 09:19:29;;;;;;;2.25;0.98;;;14.40;61.00;14.20;101021.00;;;;4933401;28;88122;-71
2023/04/27 09:22:07;;;;;;;8.02;1.10;;;14.10;61.10;14.10;101021.00;;;;4930938;28;88136;-71
2023/04/27 09:24:33;;;;;;;2.30;1.23;;;14.10;61.80;14.00;101024.00;;;;4932314;28;87795;-72
2023/04/27 09:26:59;;;;;;;2.37;1.33;;;14.00;62.10;14.00;101029.00;;;;4932553;28;107928;-70
2023/04/27 09:29:38;;;;;;;2.43;1.33;;;13.90;61.80;13.80;101019.00;;;;4931311;28;87454;-71
2023/04/27 09:32:19;;;;;;;2.47;1.53;;;13.90;61.40;13.70;101023.00;;;;4925327;28;88035;-71
2023/04/27 09:34:45;;;;;;;2.97;2.20;;;13.80;61.60;13.70;101024.00;;;;4931327;28;88019;-71
2023/04/27 09:37:11;;;;;;;1.92;1.30;;;13.70;61.60;13.60;101026.00;;;;4936217;28;104580;-71
2023/04/27 09:39:37;;;;;;;2.00;1.50;;;13.60;62.10;13.60;101026.00;;;;4924709;28;89160;-71
2023/04/27 09:42:11;;;;;;;3.50;1.53;;;13.60;62.70;13.70;101026.00;;;;4931696;28;110525;-72
2023/04/27 09:44:37;;;;;;;2.10;1.23;;;14.00;63.20;13.70;101017.00;;;;4932558;28;96124;-71
2023/04/27 09:47:03;;;;;;;1.83;1.53;;;13.60;62.90;13.70;101015.00;;;;4930823;28;117476;-69
2023/04/27 09:49:30;;;;;;;1.63;1.53;;;13.60;62.70;13.60;101014.00;;;;4916933;28;116422;-72
2023/04/27 09:51:57;;;;;;;1.33;1.23;;;13.50;62.90;13.60;101017.00;;;;4934961;28;109495;-73
2023/04/27 09:54:28;;;;;;;4.23;1.43;;;13.50;62.80;13.50;101013.00;;;;4935181;28;87400;-69
2023/04/27 09:57:16;;;;;;;2.00;1.53;;;13.50;63.20;13.60;101020.00;;;;4932621;28;97747;-71
2023/04/27 10:00:10;;;;;;;2.83;1.37;;;13.50;63.20;13.60;101011.00;;;;4930990;28;87817;-71
2023/04/27 10:02:48;;;;;;;1.90;1.40;;;13.50;63.20;13.60;101015.00;;;;4932140;28;90153;-71
2023/04/27 10:05:53;;;;;;;3.10;1.70;;;13.50;63.80;13.40;101005.00;;;;4928720;28;87702;-69
2023/04/27 10:08:19;;;;;;;3.47;1.60;;;13.40;62.20;13.20;101013.00;;;;4923354;28;87863;-70
2023/04/27 10:10:49;;;;;;;1.63;1.50;;;13.30;61.40;13.00;101002.00;;;;4929345;28;88459;-71
2023/04/27 10:13:25;;;;;;;1.30;1.10;;;13.10;60.80;12.90;101011.00;;;;4930615;28;87722;-70
2023/04/27 10:15:51;;;;;;;2.27;1.40;;;12.90;61.20;12.80;100996.00;;;;4934874;28;88150;-71
2023/04/27 10:18:30;;;;;;;2.73;1.50;;;12.90;61.80;12.70;101013.00;;;;4930334;28;88167;-70
2023/04/27 10:20:56;;;;;;;2.23;1.43;;;12.80;60.10;12.50;101010.00;;;;4932246;28;117724;-70
2023/04/27 10:23:24;;;;;;;2.17;1.30;;;12.60;59.40;12.30;101006.00;;;;4927724;28;87865;-70
2023/04/27 10:25:51;;;;;;;2.20;1.60;;;12.40;60.00;12.00;101012.00;;;;4929659;28;88024;-70
2023/04/27 10:28:17;;;;;;;3.93;1.70;;;12.10;61.70;11.80;101010.00;;;;4931894;28;89113;-70
2023/04/27 10:30:47;;;;;;;2.50;1.87;;;11.90;63.50;11.70;101010.00;;;;4930014;28;87874;-71
2023/04/27 10:33:17;;;;;;;3.87;2.60;;;11.80;64.70;11.70;101015.00;;;;4933987;28;87725;-70
2023/04/27 10:35:55;;;;;;;2.53;2.33;;;11.70;65.50;11.80;101011.00;;;;4932444;28;88037;-70
2023/04/27 10:38:29;;;;;;;2.80;1.87;;;11.80;64.70;11.90;101013.00;;;;4932526;28;87927;-70
2023/04/27 10:41:00;;;;;;;7.60;2.97;;;11.90;63.60;12.10;101010.00;;;;4929436;28;87923;-71
2023/04/27 10:43:30;;;;;;;6.07;2.20;;;12.00;62.00;12.20;101012.00;;;;4925146;28;88116;-72
2023/04/27 10:46:13;;;;;;;3.67;2.13;;;12.10;62.70;12.20;101011.00;;;;4933437;28;87478;-71
2023/04/27 10:48:43;;;;;;;3.53;1.73;;;12.10;62.80;12.40;101009.00;;;;4922167;28;88052;-70
2023/04/27 10:51:09;;;;;;;5.17;2.20;;;12.30;62.90;12.70;101002.00;;;;4931615;28;117020;-70
2023/04/27 10:53:36;;;;;;;2.10;1.77;;;12.50;63.00;13.10;101004.00;;;;4933242;28;88845;-72
2023/04/27 10:56:05;;;;;;;3.83;2.00;;;12.80;61.90;13.50;101003.00;;;;4935811;28;88255;-73